CYXT

Terrace Airport

Terrace, , Canada
METAR CYXT 181200Z 33007KT 20SM SKC 13/10 A3008 RMK SLP187
Observed Flight Rules
Jun-18 @ 12:00 UTC (an hour ago) Visual Flight Rules
Wind Visibility Clouds
330° at 7 knots 20 miles
  • Clear skies
Temperatures Readings
Current 13°C / 55°F
Dewpoint 10°C / 50°F
Humidity 82%
Altimeter 30.08" Hg
Pressure 1018.7 hPa
Elevation 217
METAR CYXT 181200Z 33007KT 20SM SKC 13/10 A3008 RMK SLP187
Observed Flight Rules
Jun-18 @ 12:00 UTC
(an hour ago)
VFR
Wind Visibility
330° at 7 knots 20 miles
Clouds
  • Clear skies
Temperature Dewpoint
13°C / 55°F 10°C / 50°F
Humidity Altimeter Pressure
82% 30.08" Hg 1018.7 hPa